sensor_id;sensor_type;location;lat;lon;timestamp;temperature;humidity
37910;DHT22;23741;49.446;8.754;2023-01-29T00:01:29;6.80;59.20
37910;DHT22;23741;49.446;8.754;2023-01-29T00:03:31;6.80;59.10
37910;DHT22;23741;49.446;8.754;2023-01-29T00:05:33;6.70;59.10
37910;DHT22;23741;49.446;8.754;2023-01-29T00:07:35;6.70;59.00
37910;DHT22;23741;49.446;8.754;2023-01-29T00:09:37;6.70;59.00
37910;DHT22;23741;49.446;8.754;2023-01-29T00:11:39;6.70;59.10
37910;DHT22;23741;49.446;8.754;2023-01-29T00:13:41;6.70;59.10
37910;DHT22;23741;49.446;8.754;2023-01-29T00:15:51;6.70;59.20
37910;DHT22;23741;49.446;8.754;2023-01-29T00:17:54;6.70;59.10
37910;DHT22;23741;49.446;8.754;2023-01-29T00:19:55;6.70;58.90
37910;DHT22;23741;49.446;8.754;2023-01-29T00:21:57;6.70;58.90
37910;DHT22;23741;49.446;8.754;2023-01-29T00:23:59;6.70;59.00
37910;DHT22;23741;49.446;8.754;2023-01-29T00:26:00;6.70;59.00
37910;DHT22;23741;49.446;8.754;2023-01-29T00:28:02;6.70;59.10
37910;DHT22;23741;49.446;8.754;2023-01-29T00:30:04;6.60;58.70
37910;DHT22;23741;49.446;8.754;2023-01-29T00:32:18;6.60;58.90
37910;DHT22;23741;49.446;8.754;2023-01-29T00:34:33;6.60;59.10
37910;DHT22;23741;49.446;8.754;2023-01-29T00:36:35;6.60;58.90
37910;DHT22;23741;49.446;8.754;2023-01-29T00:38:37;6.60;58.90
37910;DHT22;23741;49.446;8.754;2023-01-29T00:40:39;6.60;58.80
37910;DHT22;23741;49.446;8.754;2023-01-29T00:42:59;6.60;58.70
37910;DHT22;23741;49.446;8.754;2023-01-29T00:45:19;6.60;58.90
37910;DHT22;23741;49.446;8.754;2023-01-29T00:47:21;6.60;59.00
37910;DHT22;23741;49.446;8.754;2023-01-29T00:49:34;6.60;58.90
37910;DHT22;23741;49.446;8.754;2023-01-29T00:51:36;6.60;59.00
37910;DHT22;23741;49.446;8.754;2023-01-29T00:53:38;6.60;58.90
37910;DHT22;23741;49.446;8.754;2023-01-29T00:55:40;6.60;59.00
37910;DHT22;23741;49.446;8.754;2023-01-29T00:57:41;6.60;59.10
37910;DHT22;23741;49.446;8.754;2023-01-29T00:59:43;6.60;59.00
37910;DHT22;23741;49.446;8.754;2023-01-29T01:01:45;6.60;59.10
37910;DHT22;23741;49.446;8.754;2023-01-29T01:04:05;6.50;59.10
37910;DHT22;23741;49.446;8.754;2023-01-29T01:06:08;6.60;59.10
37910;DHT22;23741;49.446;8.754;2023-01-29T01:08:10;6.60;59.20
37910;DHT22;23741;49.446;8.754;2023-01-29T01:10:35;6.60;59.10
37910;DHT22;23741;49.446;8.754;2023-01-29T01:12:38;6.60;59.10
37910;DHT22;23741;49.446;8.754;2023-01-29T01:14:40;6.50;59.00
37910;DHT22;23741;49.446;8.754;2023-01-29T01:16:43;6.60;59.20
37910;DHT22;23741;49.446;8.754;2023-01-29T01:18:46;6.50;59.20
37910;DHT22;23741;49.446;8.754;2023-01-29T01:20:47;6.60;59.00
37910;DHT22;23741;49.446;8.754;2023-01-29T01:22:52;6.50;59.20
37910;DHT22;23741;49.446;8.754;2023-01-29T01:24:54;6.50;59.20
37910;DHT22;23741;49.446;8.754;2023-01-29T01:26:56;6.60;59.20
37910;DHT22;23741;49.446;8.754;2023-01-29T01:28:58;6.50;59.70
37910;DHT22;23741;49.446;8.754;2023-01-29T01:31:06;6.50;59.10
37910;DHT22;23741;49.446;8.754;2023-01-29T01:33:08;6.50;59.00
37910;DHT22;23741;49.446;8.754;2023-01-29T01:35:10;6.50;58.90
37910;DHT22;23741;49.446;8.754;2023-01-29T01:37:12;6.50;59.00
37910;DHT22;23741;49.446;8.754;2023-01-29T01:39:14;6.50;59.00
37910;DHT22;23741;49.446;8.754;2023-01-29T01:41:17;6.50;59.00
37910;DHT22;23741;49.446;8.754;2023-01-29T01:43:20;6.50;59.10
37910;DHT22;23741;49.446;8.754;2023-01-29T01:47:25;6.50;59.10
37910;DHT22;23741;49.446;8.754;2023-01-29T01:49:28;6.50;59.00
37910;DHT22;23741;49.446;8.754;2023-01-29T01:51:30;6.50;59.10
37910;DHT22;23741;49.446;8.754;2023-01-29T01:53:38;6.50;59.00
37910;DHT22;23741;49.446;8.754;2023-01-29T01:55:46;6.50;59.10
37910;DHT22;23741;49.446;8.754;2023-01-29T01:57:49;6.50;59.00
37910;DHT22;23741;49.446;8.754;2023-01-29T01:59:56;6.50;58.90
37910;DHT22;23741;49.446;8.754;2023-01-29T02:01:59;6.40;58.80
37910;DHT22;23741;49.446;8.754;2023-01-29T02:04:20;6.40;58.90
37910;DHT22;23741;49.446;8.754;2023-01-29T02:06:41;6.50;58.90
37910;DHT22;23741;49.446;8.754;2023-01-29T02:09:04;6.40;58.80
37910;DHT22;23741;49.446;8.754;2023-01-29T02:11:24;6.40;59.00
37910;DHT22;23741;49.446;8.754;2023-01-29T02:13:26;6.40;59.00
37910;DHT22;23741;49.446;8.754;2023-01-29T02:15:28;6.40;59.00
37910;DHT22;23741;49.446;8.754;2023-01-29T02:17:30;6.40;58.90
37910;DHT22;23741;49.446;8.754;2023-01-29T02:30:03;6.40;59.10
37910;DHT22;23741;49.446;8.754;2023-01-29T02:32:08;6.40;59.00
37910;DHT22;23741;49.446;8.754;2023-01-29T02:40:30;6.30;59.00
37910;DHT22;23741;49.446;8.754;2023-01-29T02:42:35;6.30;59.00
37910;DHT22;23741;49.446;8.754;2023-01-29T02:47:03;6.30;58.70
37910;DHT22;23741;49.446;8.754;2023-01-29T02:49:18;6.30;58.80
37910;DHT22;23741;49.446;8.754;2023-01-29T02:51:25;6.30;58.80
37910;DHT22;23741;49.446;8.754;2023-01-29T02:53:39;6.30;58.80
37910;DHT22;23741;49.446;8.754;2023-01-29T02:55:48;6.30;58.90
37910;DHT22;23741;49.446;8.754;2023-01-29T02:57:54;6.30;58.90
37910;DHT22;23741;49.446;8.754;2023-01-29T03:00:02;6.20;58.90
37910;DHT22;23741;49.446;8.754;2023-01-29T03:02:09;6.20;58.90
37910;DHT22;23741;49.446;8.754;2023-01-29T03:04:14;6.20;59.00
37910;DHT22;23741;49.446;8.754;2023-01-29T03:06:31;6.20;58.70
37910;DHT22;23741;49.446;8.754;2023-01-29T03:08:35;6.20;58.80
37910;DHT22;23741;49.446;8.754;2023-01-29T03:10:48;6.20;59.00
37910;DHT22;23741;49.446;8.754;2023-01-29T03:13:11;6.20;59.00
37910;DHT22;23741;49.446;8.754;2023-01-29T03:15:19;6.20;59.00
37910;DHT22;23741;49.446;8.754;2023-01-29T03:19:46;6.20;59.10
37910;DHT22;23741;49.446;8.754;2023-01-29T03:21:55;6.20;59.20
37910;DHT22;23741;49.446;8.754;2023-01-29T03:24:04;6.20;59.10
37910;DHT22;23741;49.446;8.754;2023-01-29T03:26:25;6.20;59.10
37910;DHT22;23741;49.446;8.754;2023-01-29T03:28:46;6.20;59.20
37910;DHT22;23741;49.446;8.754;2023-01-29T03:31:08;6.20;59.10
37910;DHT22;23741;49.446;8.754;2023-01-29T03:33:34;6.20;59.00
37910;DHT22;23741;49.446;8.754;2023-01-29T03:35:39;6.10;59.00
37910;DHT22;23741;49.446;8.754;2023-01-29T03:37:44;6.10;59.10
37910;DHT22;23741;49.446;8.754;2023-01-29T03:39:46;6.10;59.10
37910;DHT22;23741;49.446;8.754;2023-01-29T03:44:13;6.10;59.10
37910;DHT22;23741;49.446;8.754;2023-01-29T03:46:17;6.10;59.00
37910;DHT22;23741;49.446;8.754;2023-01-29T03:52:50;6.10;59.10
37910;DHT22;23741;49.446;8.754;2023-01-29T03:54:57;6.20;59.20
37910;DHT22;23741;49.446;8.754;2023-01-29T03:59:24;6.10;59.10
37910;DHT22;23741;49.446;8.754;2023-01-29T04:01:58;6.10;59.10
37910;DHT22;23741;49.446;8.754;2023-01-29T04:04:04;6.10;59.20
37910;DHT22;23741;49.446;8.754;2023-01-29T04:06:17;6.10;59.20
37910;DHT22;23741;49.446;8.754;2023-01-29T04:08:31;6.20;59.30
37910;DHT22;23741;49.446;8.754;2023-01-29T04:10:34;6.10;59.00
37910;DHT22;23741;49.446;8.754;2023-01-29T04:12:41;6.10;59.20
37910;DHT22;23741;49.446;8.754;2023-01-29T04:14:43;6.10;59.10
37910;DHT22;23741;49.446;8.754;2023-01-29T04:16:47;6.10;59.10
37910;DHT22;23741;49.446;8.754;2023-01-29T04:18:58;6.10;59.10
37910;DHT22;23741;49.446;8.754;2023-01-29T04:21:04;6.10;59.10
37910;DHT22;23741;49.446;8.754;2023-01-29T04:23:20;6.10;59.20
37910;DHT22;23741;49.446;8.754;2023-01-29T04:25:24;6.10;59.10
37910;DHT22;23741;49.446;8.754;2023-01-29T04:27:32;6.10;58.90
37910;DHT22;23741;49.446;8.754;2023-01-29T04:29:42;6.10;58.90
37910;DHT22;23741;49.446;8.754;2023-01-29T04:34:11;6.00;59.10
37910;DHT22;23741;49.446;8.754;2023-01-29T04:36:29;6.00;59.10
37910;DHT22;23741;49.446;8.754;2023-01-29T04:40:52;6.00;58.80
37910;DHT22;23741;49.446;8.754;2023-01-29T04:45:04;6.00;58.60
37910;DHT22;23741;49.446;8.754;2023-01-29T04:51:21;6.00;59.10
37910;DHT22;23741;49.446;8.754;2023-01-29T05:00:12;6.00;59.10
37910;DHT22;23741;49.446;8.754;2023-01-29T05:02:15;6.00;59.20
37910;DHT22;23741;49.446;8.754;2023-01-29T05:04:17;6.00;59.20
37910;DHT22;23741;49.446;8.754;2023-01-29T05:06:20;6.00;59.20
37910;DHT22;23741;49.446;8.754;2023-01-29T05:08:23;6.00;59.10
37910;DHT22;23741;49.446;8.754;2023-01-29T05:10:26;5.90;59.10
37910;DHT22;23741;49.446;8.754;2023-01-29T05:12:28;5.90;59.10
37910;DHT22;23741;49.446;8.754;2023-01-29T05:14:31;5.90;59.10
37910;DHT22;23741;49.446;8.754;2023-01-29T05:16:36;5.90;59.10
37910;DHT22;23741;49.446;8.754;2023-01-29T05:18:42;5.90;59.20
37910;DHT22;23741;49.446;8.754;2023-01-29T05:20:44;5.90;59.20
37910;DHT22;23741;49.446;8.754;2023-01-29T05:22:47;5.90;59.10
37910;DHT22;23741;49.446;8.754;2023-01-29T05:24:49;5.90;59.10
37910;DHT22;23741;49.446;8.754;2023-01-29T05:26:52;5.90;59.10
37910;DHT22;23741;49.446;8.754;2023-01-29T05:29:18;5.90;59.10
37910;DHT22;23741;49.446;8.754;2023-01-29T05:31:21;5.90;59.10
37910;DHT22;23741;49.446;8.754;2023-01-29T05:33:27;5.90;59.10
37910;DHT22;23741;49.446;8.754;2023-01-29T05:35:29;5.90;59.10
37910;DHT22;23741;49.446;8.754;2023-01-29T05:37:30;5.80;59.10
37910;DHT22;23741;49.446;8.754;2023-01-29T05:39:32;5.80;59.10
37910;DHT22;23741;49.446;8.754;2023-01-29T05:41:34;5.80;59.10
37910;DHT22;23741;49.446;8.754;2023-01-29T05:43:35;5.80;58.90
37910;DHT22;23741;49.446;8.754;2023-01-29T05:45:37;5.80;58.90
37910;DHT22;23741;49.446;8.754;2023-01-29T05:47:39;5.80;59.10
37910;DHT22;23741;49.446;8.754;2023-01-29T05:49:40;5.80;59.10
37910;DHT22;23741;49.446;8.754;2023-01-29T05:51:42;5.80;59.10
37910;DHT22;23741;49.446;8.754;2023-01-29T05:53:44;5.80;59.20
37910;DHT22;23741;49.446;8.754;2023-01-29T05:55:46;5.80;59.30
37910;DHT22;23741;49.446;8.754;2023-01-29T05:57:48;5.80;59.30
37910;DHT22;23741;49.446;8.754;2023-01-29T05:59:50;5.80;59.30
37910;DHT22;23741;49.446;8.754;2023-01-29T06:01:51;5.80;59.10
37910;DHT22;23741;49.446;8.754;2023-01-29T06:03:53;5.80;59.10
37910;DHT22;23741;49.446;8.754;2023-01-29T06:05:55;5.80;59.20
37910;DHT22;23741;49.446;8.754;2023-01-29T06:07:57;5.80;59.20
37910;DHT22;23741;49.446;8.754;2023-01-29T06:09:58;5.80;59.10
37910;DHT22;23741;49.446;8.754;2023-01-29T06:12:00;5.80;59.20
37910;DHT22;23741;49.446;8.754;2023-01-29T06:14:02;5.90;59.30
37910;DHT22;23741;49.446;8.754;2023-01-29T06:16:07;5.90;59.30
37910;DHT22;23741;49.446;8.754;2023-01-29T06:18:08;5.90;59.30
37910;DHT22;23741;49.446;8.754;2023-01-29T06:20:10;5.90;59.30
37910;DHT22;23741;49.446;8.754;2023-01-29T06:22:12;5.90;59.10
37910;DHT22;23741;49.446;8.754;2023-01-29T06:24:14;5.90;59.00
37910;DHT22;23741;49.446;8.754;2023-01-29T06:26:15;5.90;59.10
37910;DHT22;23741;49.446;8.754;2023-01-29T06:28:17;5.90;59.00
37910;DHT22;23741;49.446;8.754;2023-01-29T06:30:19;5.90;58.80
37910;DHT22;23741;49.446;8.754;2023-01-29T06:32:20;5.90;58.80
37910;DHT22;23741;49.446;8.754;2023-01-29T06:34:22;5.90;58.90
37910;DHT22;23741;49.446;8.754;2023-01-29T06:36:24;5.90;58.80
37910;DHT22;23741;49.446;8.754;2023-01-29T06:38:25;5.90;58.80
37910;DHT22;23741;49.446;8.754;2023-01-29T06:40:27;5.90;58.90
37910;DHT22;23741;49.446;8.754;2023-01-29T06:42:29;5.90;59.00
37910;DHT22;23741;49.446;8.754;2023-01-29T06:44:30;6.00;59.10
37910;DHT22;23741;49.446;8.754;2023-01-29T06:46:32;6.00;59.20
37910;DHT22;23741;49.446;8.754;2023-01-29T06:48:34;6.00;59.20
37910;DHT22;23741;49.446;8.754;2023-01-29T06:50:38;6.00;59.10
37910;DHT22;23741;49.446;8.754;2023-01-29T06:52:39;6.00;59.10
37910;DHT22;23741;49.446;8.754;2023-01-29T06:54:41;6.00;59.00
37910;DHT22;23741;49.446;8.754;2023-01-29T06:56:42;6.00;59.00
37910;DHT22;23741;49.446;8.754;2023-01-29T06:58:44;6.00;59.10
37910;DHT22;23741;49.446;8.754;2023-01-29T07:00:46;6.00;59.00
37910;DHT22;23741;49.446;8.754;2023-01-29T07:02:48;6.00;59.10
37910;DHT22;23741;49.446;8.754;2023-01-29T07:04:50;6.00;59.00
37910;DHT22;23741;49.446;8.754;2023-01-29T07:06:51;6.00;59.00
37910;DHT22;23741;49.446;8.754;2023-01-29T07:08:53;6.00;59.10
37910;DHT22;23741;49.446;8.754;2023-01-29T07:10:59;6.00;59.00
37910;DHT22;23741;49.446;8.754;2023-01-29T07:13:01;6.00;59.00
37910;DHT22;23741;49.446;8.754;2023-01-29T07:15:03;6.00;59.00
37910;DHT22;23741;49.446;8.754;2023-01-29T07:17:04;5.90;58.90
37910;DHT22;23741;49.446;8.754;2023-01-29T07:19:06;6.00;59.10
37910;DHT22;23741;49.446;8.754;2023-01-29T07:21:08;5.90;59.10
37910;DHT22;23741;49.446;8.754;2023-01-29T07:23:10;5.90;59.10
37910;DHT22;23741;49.446;8.754;2023-01-29T07:25:13;6.00;59.10
37910;DHT22;23741;49.446;8.754;2023-01-29T07:27:14;5.90;59.10
37910;DHT22;23741;49.446;8.754;2023-01-29T07:29:16;5.90;59.10
37910;DHT22;23741;49.446;8.754;2023-01-29T07:31:18;6.00;59.10
37910;DHT22;23741;49.446;8.754;2023-01-29T07:33:20;6.00;59.10
37910;DHT22;23741;49.446;8.754;2023-01-29T07:35:21;5.90;59.00
37910;DHT22;23741;49.446;8.754;2023-01-29T07:37:23;5.90;58.90
37910;DHT22;23741;49.446;8.754;2023-01-29T07:39:24;6.00;58.90
37910;DHT22;23741;49.446;8.754;2023-01-29T07:41:26;5.90;59.00
37910;DHT22;23741;49.446;8.754;2023-01-29T07:43:28;5.90;59.10
37910;DHT22;23741;49.446;8.754;2023-01-29T07:45:30;5.90;59.10
37910;DHT22;23741;49.446;8.754;2023-01-29T07:47:33;5.90;59.10
37910;DHT22;23741;49.446;8.754;2023-01-29T07:49:35;5.90;58.90
37910;DHT22;23741;49.446;8.754;2023-01-29T07:51:37;5.90;59.00
37910;DHT22;23741;49.446;8.754;2023-01-29T07:53:38;5.90;59.10
37910;DHT22;23741;49.446;8.754;2023-01-29T07:55:43;5.90;59.00
37910;DHT22;23741;49.446;8.754;2023-01-29T07:57:45;5.90;59.00
37910;DHT22;23741;49.446;8.754;2023-01-29T07:59:47;5.90;59.00
37910;DHT22;23741;49.446;8.754;2023-01-29T08:01:49;5.90;59.10
37910;DHT22;23741;49.446;8.754;2023-01-29T08:03:50;6.00;59.10
37910;DHT22;23741;49.446;8.754;2023-01-29T08:05:52;5.90;59.10
37910;DHT22;23741;49.446;8.754;2023-01-29T08:07:54;6.00;59.10
37910;DHT22;23741;49.446;8.754;2023-01-29T08:10:07;6.00;59.00
37910;DHT22;23741;49.446;8.754;2023-01-29T08:12:09;5.90;59.00
37910;DHT22;23741;49.446;8.754;2023-01-29T08:14:11;6.00;59.10
37910;DHT22;23741;49.446;8.754;2023-01-29T08:16:13;5.90;59.10
37910;DHT22;23741;49.446;8.754;2023-01-29T08:18:14;6.00;59.10
37910;DHT22;23741;49.446;8.754;2023-01-29T08:20:16;5.90;59.10
37910;DHT22;23741;49.446;8.754;2023-01-29T08:22:19;6.00;59.80
37910;DHT22;23741;49.446;8.754;2023-01-29T08:24:21;6.00;59.10
37910;DHT22;23741;49.446;8.754;2023-01-29T08:26:22;6.00;59.20
37910;DHT22;23741;49.446;8.754;2023-01-29T08:28:26;6.00;59.30
37910;DHT22;23741;49.446;8.754;2023-01-29T08:30:29;6.00;59.30
37910;DHT22;23741;49.446;8.754;2023-01-29T08:32:31;6.00;59.30
37910;DHT22;23741;49.446;8.754;2023-01-29T08:34:32;6.00;59.20
37910;DHT22;23741;49.446;8.754;2023-01-29T08:36:34;6.00;59.20
37910;DHT22;23741;49.446;8.754;2023-01-29T08:38:36;6.10;60.00
37910;DHT22;23741;49.446;8.754;2023-01-29T08:40:38;6.10;59.40
37910;DHT22;23741;49.446;8.754;2023-01-29T08:42:39;6.10;59.40
37910;DHT22;23741;49.446;8.754;2023-01-29T08:44:42;6.10;59.10
37910;DHT22;23741;49.446;8.754;2023-01-29T08:46:43;6.20;58.90
37910;DHT22;23741;49.446;8.754;2023-01-29T08:48:45;6.20;59.10
37910;DHT22;23741;49.446;8.754;2023-01-29T08:50:47;6.20;59.10
37910;DHT22;23741;49.446;8.754;2023-01-29T08:52:48;6.20;59.10
37910;DHT22;23741;49.446;8.754;2023-01-29T08:54:50;6.20;59.10
37910;DHT22;23741;49.446;8.754;2023-01-29T08:56:52;6.20;59.00
37910;DHT22;23741;49.446;8.754;2023-01-29T08:58:53;6.20;59.10
37910;DHT22;23741;49.446;8.754;2023-01-29T09:00:55;6.20;59.20
37910;DHT22;23741;49.446;8.754;2023-01-29T09:02:57;6.30;59.30
37910;DHT22;23741;49.446;8.754;2023-01-29T09:05:00;6.30;59.30
37910;DHT22;23741;49.446;8.754;2023-01-29T09:07:01;6.30;59.20
37910;DHT22;23741;49.446;8.754;2023-01-29T09:09:03;6.40;59.10
37910;DHT22;23741;49.446;8.754;2023-01-29T09:11:05;6.40;59.20
37910;DHT22;23741;49.446;8.754;2023-01-29T09:13:08;6.40;59.20
37910;DHT22;23741;49.446;8.754;2023-01-29T09:15:10;6.40;58.70
37910;DHT22;23741;49.446;8.754;2023-01-29T09:17:12;6.40;58.80
37910;DHT22;23741;49.446;8.754;2023-01-29T09:19:14;6.40;58.70
37910;DHT22;23741;49.446;8.754;2023-01-29T09:21:15;6.40;58.60
37910;DHT22;23741;49.446;8.754;2023-01-29T09:23:17;6.40;58.60
37910;DHT22;23741;49.446;8.754;2023-01-29T09:25:19;6.40;58.40
37910;DHT22;23741;49.446;8.754;2023-01-29T09:27:21;6.50;58.50
37910;DHT22;23741;49.446;8.754;2023-01-29T09:29:23;6.50;58.40
37910;DHT22;23741;49.446;8.754;2023-01-29T09:31:24;6.50;58.40
37910;DHT22;23741;49.446;8.754;2023-01-29T09:33:26;6.50;58.50
37910;DHT22;23741;49.446;8.754;2023-01-29T09:35:28;6.50;58.70
37910;DHT22;23741;49.446;8.754;2023-01-29T09:37:30;6.50;58.50
37910;DHT22;23741;49.446;8.754;2023-01-29T09:39:32;6.50;58.50
37910;DHT22;23741;49.446;8.754;2023-01-29T09:43:48;6.50;58.60
37910;DHT22;23741;49.446;8.754;2023-01-29T09:45:55;6.50;58.70
37910;DHT22;23741;49.446;8.754;2023-01-29T09:47:59;6.50;58.80
37910;DHT22;23741;49.446;8.754;2023-01-29T09:50:06;6.50;58.80
37910;DHT22;23741;49.446;8.754;2023-01-29T09:52:19;6.50;58.80
37910;DHT22;23741;49.446;8.754;2023-01-29T09:54:23;6.60;58.80
37910;DHT22;23741;49.446;8.754;2023-01-29T09:56:26;6.60;58.70
37910;DHT22;23741;49.446;8.754;2023-01-29T09:58:33;6.60;58.40
37910;DHT22;23741;49.446;8.754;2023-01-29T10:07:51;6.70;58.70
37910;DHT22;23741;49.446;8.754;2023-01-29T10:17:00;6.80;58.70
37910;DHT22;23741;49.446;8.754;2023-01-29T10:23:52;6.80;58.60
37910;DHT22;23741;49.446;8.754;2023-01-29T10:25:57;6.80;58.70
37910;DHT22;23741;49.446;8.754;2023-01-29T10:27:59;6.90;58.70
37910;DHT22;23741;49.446;8.754;2023-01-29T10:30:02;6.90;58.50
37910;DHT22;23741;49.446;8.754;2023-01-29T10:32:07;6.90;58.20
37910;DHT22;23741;49.446;8.754;2023-01-29T10:36:20;6.90;57.30
37910;DHT22;23741;49.446;8.754;2023-01-29T10:38:27;6.90;56.70
37910;DHT22;23741;49.446;8.754;2023-01-29T10:42:37;6.90;56.80
37910;DHT22;23741;49.446;8.754;2023-01-29T11:01:44;6.60;57.40
37910;DHT22;23741;49.446;8.754;2023-01-29T11:03:51;6.60;57.80
37910;DHT22;23741;49.446;8.754;2023-01-29T11:08:14;6.70;58.30
37910;DHT22;23741;49.446;8.754;2023-01-29T11:10:17;6.70;58.50
37910;DHT22;23741;49.446;8.754;2023-01-29T11:12:21;6.80;58.50
37910;DHT22;23741;49.446;8.754;2023-01-29T11:14:37;6.80;58.60
37910;DHT22;23741;49.446;8.754;2023-01-29T11:16:44;6.90;58.50
37910;DHT22;23741;49.446;8.754;2023-01-29T11:18:52;6.90;58.70
37910;DHT22;23741;49.446;8.754;2023-01-29T11:20:59;7.00;58.50
37910;DHT22;23741;49.446;8.754;2023-01-29T11:23:03;7.00;58.50
37910;DHT22;23741;49.446;8.754;2023-01-29T11:25:08;7.10;58.30
37910;DHT22;23741;49.446;8.754;2023-01-29T11:27:23;7.10;58.40
37910;DHT22;23741;49.446;8.754;2023-01-29T11:29:37;7.20;58.50
37910;DHT22;23741;49.446;8.754;2023-01-29T11:31:39;7.30;58.30
37910;DHT22;23741;49.446;8.754;2023-01-29T11:33:41;7.30;58.40
37910;DHT22;23741;49.446;8.754;2023-01-29T11:35:43;7.40;58.60
37910;DHT22;23741;49.446;8.754;2023-01-29T11:37:45;7.50;58.40
37910;DHT22;23741;49.446;8.754;2023-01-29T11:39:47;7.60;58.30
37910;DHT22;23741;49.446;8.754;2023-01-29T11:41:51;7.60;58.40
37910;DHT22;23741;49.446;8.754;2023-01-29T11:43:54;7.70;58.50
37910;DHT22;23741;49.446;8.754;2023-01-29T11:46:03;7.90;58.40
37910;DHT22;23741;49.446;8.754;2023-01-29T11:48:11;7.90;58.20
37910;DHT22;23741;49.446;8.754;2023-01-29T11:50:19;8.00;57.80
37910;DHT22;23741;49.446;8.754;2023-01-29T11:52:26;8.10;57.70
37910;DHT22;23741;49.446;8.754;2023-01-29T11:54:39;8.10;57.70
37910;DHT22;23741;49.446;8.754;2023-01-29T11:56:44;8.20;57.50
37910;DHT22;23741;49.446;8.754;2023-01-29T11:58:47;8.30;57.60
37910;DHT22;23741;49.446;8.754;2023-01-29T12:00:50;8.40;57.40
37910;DHT22;23741;49.446;8.754;2023-01-29T12:05:14;8.50;57.40
37910;DHT22;23741;49.446;8.754;2023-01-29T12:07:17;8.50;57.20
37910;DHT22;23741;49.446;8.754;2023-01-29T12:09:28;8.60;57.00
37910;DHT22;23741;49.446;8.754;2023-01-29T12:11:31;8.60;56.60
37910;DHT22;23741;49.446;8.754;2023-01-29T12:13:33;8.60;56.70
37910;DHT22;23741;49.446;8.754;2023-01-29T12:15:37;8.70;56.70
37910;DHT22;23741;49.446;8.754;2023-01-29T12:17:39;8.70;56.90
37910;DHT22;23741;49.446;8.754;2023-01-29T12:19:47;8.80;56.50
37910;DHT22;23741;49.446;8.754;2023-01-29T12:21:57;8.80;56.40
37910;DHT22;23741;49.446;8.754;2023-01-29T12:24:14;8.80;56.30
37910;DHT22;23741;49.446;8.754;2023-01-29T12:26:23;8.80;56.20
37910;DHT22;23741;49.446;8.754;2023-01-29T12:32:40;8.80;55.20
37910;DHT22;23741;49.446;8.754;2023-01-29T12:36:48;8.80;55.60
37910;DHT22;23741;49.446;8.754;2023-01-29T12:38:53;8.80;55.70
37910;DHT22;23741;49.446;8.754;2023-01-29T12:40:59;8.80;55.60
37910;DHT22;23741;49.446;8.754;2023-01-29T12:43:09;8.80;55.70
37910;DHT22;23741;49.446;8.754;2023-01-29T12:55:46;8.80;56.00
37910;DHT22;23741;49.446;8.754;2023-01-29T12:58:03;8.80;56.00
37910;DHT22;23741;49.446;8.754;2023-01-29T13:00:24;8.80;55.40
37910;DHT22;23741;49.446;8.754;2023-01-29T13:02:44;8.90;55.60
37910;DHT22;23741;49.446;8.754;2023-01-29T13:04:56;8.90;55.40
37910;DHT22;23741;49.446;8.754;2023-01-29T13:07:16;8.90;55.40
37910;DHT22;23741;49.446;8.754;2023-01-29T13:09:20;8.90;55.60
37910;DHT22;23741;49.446;8.754;2023-01-29T13:13:31;8.90;55.30
37910;DHT22;23741;49.446;8.754;2023-01-29T13:15:38;8.90;55.70
37910;DHT22;23741;49.446;8.754;2023-01-29T13:17:45;8.90;55.40
37910;DHT22;23741;49.446;8.754;2023-01-29T13:19:49;8.90;55.50
37910;DHT22;23741;49.446;8.754;2023-01-29T13:21:52;8.90;55.20
37910;DHT22;23741;49.446;8.754;2023-01-29T13:24:02;8.80;54.70
37910;DHT22;23741;49.446;8.754;2023-01-29T13:26:04;8.80;54.80
37910;DHT22;23741;49.446;8.754;2023-01-29T13:28:14;8.80;55.30
37910;DHT22;23741;49.446;8.754;2023-01-29T13:30:23;8.70;55.60
37910;DHT22;23741;49.446;8.754;2023-01-29T13:32:26;8.70;55.80
37910;DHT22;23741;49.446;8.754;2023-01-29T13:36:32;8.60;55.60
37910;DHT22;23741;49.446;8.754;2023-01-29T13:38:34;8.60;55.80
37910;DHT22;23741;49.446;8.754;2023-01-29T13:40:36;8.60;54.90
37910;DHT22;23741;49.446;8.754;2023-01-29T13:42:41;8.60;55.50
37910;DHT22;23741;49.446;8.754;2023-01-29T13:44:48;8.60;55.80
37910;DHT22;23741;49.446;8.754;2023-01-29T13:46:55;8.60;55.70
37910;DHT22;23741;49.446;8.754;2023-01-29T13:48:57;8.60;55.20
37910;DHT22;23741;49.446;8.754;2023-01-29T13:51:02;8.60;55.60
37910;DHT22;23741;49.446;8.754;2023-01-29T13:53:05;8.70;55.20
37910;DHT22;23741;49.446;8.754;2023-01-29T13:55:19;8.60;55.20
37910;DHT22;23741;49.446;8.754;2023-01-29T14:03:52;8.70;55.30
37910;DHT22;23741;49.446;8.754;2023-01-29T14:06:05;8.70;55.50
37910;DHT22;23741;49.446;8.754;2023-01-29T14:10:19;8.70;55.70
37910;DHT22;23741;49.446;8.754;2023-01-29T14:16:43;8.70;55.80
37910;DHT22;23741;49.446;8.754;2023-01-29T14:22:55;8.80;55.60
37910;DHT22;23741;49.446;8.754;2023-01-29T14:25:02;8.80;55.60
37910;DHT22;23741;49.446;8.754;2023-01-29T14:27:12;8.80;55.60
37910;DHT22;23741;49.446;8.754;2023-01-29T14:33:37;8.80;55.40
37910;DHT22;23741;49.446;8.754;2023-01-29T14:35:47;8.80;54.30
37910;DHT22;23741;49.446;8.754;2023-01-29T14:37:50;8.80;55.40
37910;DHT22;23741;49.446;8.754;2023-01-29T14:39:54;8.80;55.00
37910;DHT22;23741;49.446;8.754;2023-01-29T14:41:58;8.70;54.30
37910;DHT22;23741;49.446;8.754;2023-01-29T14:46:40;8.70;54.20
37910;DHT22;23741;49.446;8.754;2023-01-29T14:48:45;8.60;54.80
37910;DHT22;23741;49.446;8.754;2023-01-29T14:50:49;8.60;55.30
37910;DHT22;23741;49.446;8.754;2023-01-29T14:52:51;8.60;55.40
37910;DHT22;23741;49.446;8.754;2023-01-29T14:54:56;8.60;55.30
37910;DHT22;23741;49.446;8.754;2023-01-29T14:57:01;8.60;55.50
37910;DHT22;23741;49.446;8.754;2023-01-29T15:01:24;8.70;55.60
37910;DHT22;23741;49.446;8.754;2023-01-29T15:05:35;8.70;55.70
37910;DHT22;23741;49.446;8.754;2023-01-29T15:07:43;8.70;55.80
37910;DHT22;23741;49.446;8.754;2023-01-29T15:11:57;8.70;55.50
37910;DHT22;23741;49.446;8.754;2023-01-29T15:16:47;8.60;55.60
37910;DHT22;23741;49.446;8.754;2023-01-29T15:18:40;8.60;55.60
37910;DHT22;23741;49.446;8.754;2023-01-29T15:20:42;8.60;55.30
37910;DHT22;23741;49.446;8.754;2023-01-29T15:22:44;8.50;55.30
37910;DHT22;23741;49.446;8.754;2023-01-29T15:24:47;8.50;55.30
37910;DHT22;23741;49.446;8.754;2023-01-29T15:27:02;8.50;55.00
37910;DHT22;23741;49.446;8.754;2023-01-29T15:29:03;8.40;55.20
37910;DHT22;23741;49.446;8.754;2023-01-29T15:31:10;8.40;55.20
37910;DHT22;23741;49.446;8.754;2023-01-29T15:33:13;8.40;55.20
37910;DHT22;23741;49.446;8.754;2023-01-29T15:37:33;8.20;54.70
37910;DHT22;23741;49.446;8.754;2023-01-29T15:39:41;8.20;55.00
37910;DHT22;23741;49.446;8.754;2023-01-29T15:41:43;8.10;55.30
37910;DHT22;23741;49.446;8.754;2023-01-29T15:43:46;8.00;55.40
37910;DHT22;23741;49.446;8.754;2023-01-29T15:45:49;8.00;55.50
37910;DHT22;23741;49.446;8.754;2023-01-29T15:47:54;7.90;55.20
37910;DHT22;23741;49.446;8.754;2023-01-29T15:49:58;7.90;55.30
37910;DHT22;23741;49.446;8.754;2023-01-29T15:52:04;7.80;55.40
37910;DHT22;23741;49.446;8.754;2023-01-29T15:54:12;7.90;55.70
37910;DHT22;23741;49.446;8.754;2023-01-29T15:56:17;7.80;55.70